createdAt,value
2023-03-12T00:00:14.757Z,0.00
2023-03-12T00:01:14.759Z,0.00
2023-03-12T00:02:14.764Z,0.00
2023-03-12T00:03:14.745Z,0.00
2023-03-12T00:04:14.713Z,0.00
2023-03-12T00:05:14.705Z,0.00
2023-03-12T00:06:14.733Z,0.00
2023-03-12T00:07:14.677Z,0.00
2023-03-12T00:08:14.676Z,0.00
2023-03-12T00:09:14.658Z,0.00
2023-03-12T00:10:14.648Z,0.00
2023-03-12T00:11:14.635Z,0.00
2023-03-12T00:12:14.640Z,0.00
2023-03-12T00:13:14.613Z,0.00
2023-03-12T00:14:14.613Z,0.00
2023-03-12T00:15:14.598Z,0.00
2023-03-12T00:16:14.719Z,0.00
2023-03-12T00:17:14.570Z,0.00
2023-03-12T00:18:14.659Z,0.00
2023-03-12T00:19:14.631Z,0.00
2023-03-12T00:20:14.554Z,0.00
2023-03-12T00:21:14.522Z,0.00
2023-03-12T00:22:14.522Z,0.00
2023-03-12T00:23:14.502Z,0.00
2023-03-12T00:24:14.557Z,0.00
2023-03-12T00:25:14.497Z,0.00
2023-03-12T00:26:14.493Z,0.00
2023-03-12T00:27:14.459Z,0.00
2023-03-12T00:28:14.455Z,0.00
2023-03-12T00:29:14.431Z,0.00
2023-03-12T00:30:14.427Z,0.00
2023-03-12T00:31:14.516Z,0.00
2023-03-12T00:32:14.516Z,0.00
2023-03-12T00:33:14.387Z,0.00
2023-03-12T00:34:14.376Z,0.00
2023-03-12T00:35:14.393Z,0.00
2023-03-12T00:36:14.406Z,0.00
2023-03-12T00:37:14.345Z,0.00
2023-03-12T00:38:14.335Z,0.00
2023-03-12T00:39:14.377Z,0.00
2023-03-12T00:40:14.312Z,0.00
2023-03-12T00:41:14.313Z,0.00
2023-03-12T00:42:14.288Z,0.00
2023-03-12T00:43:14.281Z,0.00
2023-03-12T00:44:14.266Z,0.00
2023-03-12T00:45:14.269Z,0.00
2023-03-12T00:46:14.512Z,0.00
2023-03-12T00:47:14.245Z,0.00
2023-03-12T00:48:14.226Z,0.00
2023-03-12T00:49:14.233Z,0.00
2023-03-12T00:50:14.204Z,0.00
2023-03-12T00:51:14.203Z,0.00
2023-03-12T00:52:14.181Z,0.00
2023-03-12T00:53:14.165Z,0.00
2023-03-12T00:54:14.153Z,0.00
2023-03-12T00:55:14.153Z,0.00
2023-03-12T00:56:14.136Z,0.00
2023-03-12T00:57:14.123Z,0.00
2023-03-12T00:58:14.788Z,0.00
2023-03-12T00:59:14.107Z,0.00
2023-03-12T01:00:14.095Z,0.00
2023-03-12T01:01:14.185Z,0.00
2023-03-12T01:02:14.073Z,0.00
2023-03-12T01:03:14.053Z,0.00
2023-03-12T01:04:14.091Z,0.00
2023-03-12T01:05:14.045Z,0.00
2023-03-12T01:06:14.027Z,0.00
2023-03-12T01:07:14.042Z,0.00
2023-03-12T01:08:14.186Z,0.00
2023-03-12T01:09:14.018Z,0.00
2023-03-12T01:10:13.978Z,0.00
2023-03-12T01:11:13.975Z,0.00
2023-03-12T01:12:13.962Z,0.00
2023-03-12T01:13:13.950Z,0.00
2023-03-12T01:14:13.968Z,0.00
2023-03-12T01:15:13.934Z,0.00
2023-03-12T01:16:13.972Z,0.00
2023-03-12T01:17:13.905Z,0.00
2023-03-12T01:18:13.919Z,0.00
2023-03-12T01:19:13.897Z,0.00
2023-03-12T01:20:13.883Z,0.00
2023-03-12T01:21:13.877Z,0.00
2023-03-12T01:22:13.852Z,0.00
2023-03-12T01:23:13.884Z,0.00
2023-03-12T01:24:13.864Z,0.00
2023-03-12T01:25:13.821Z,0.00
2023-03-12T01:26:13.817Z,0.00
2023-03-12T01:27:13.874Z,0.00
2023-03-12T01:28:13.789Z,0.00
2023-03-12T01:29:13.803Z,0.00
2023-03-12T01:30:13.781Z,0.00
2023-03-12T01:31:13.818Z,0.00
2023-03-12T01:32:13.906Z,0.00
2023-03-12T01:33:13.735Z,0.00
2023-03-12T01:34:13.732Z,0.00
2023-03-12T01:35:13.749Z,0.00
2023-03-12T01:36:13.795Z,0.00
2023-03-12T01:37:13.687Z,0.00
2023-03-12T01:38:13.719Z,0.00
2023-03-12T01:39:13.698Z,0.00
2023-03-12T01:40:13.655Z,0.00
2023-03-12T01:41:13.641Z,0.00
2023-03-12T01:42:13.632Z,0.00
2023-03-12T01:43:13.626Z,0.00
2023-03-12T01:44:13.627Z,0.00
2023-03-12T01:45:13.599Z,0.00
2023-03-12T01:46:13.728Z,0.00
2023-03-12T01:47:13.578Z,0.00
2023-03-12T01:48:13.567Z,0.00
2023-03-12T01:49:13.569Z,0.00
2023-03-12T01:50:13.548Z,0.00
2023-03-12T01:51:13.535Z,0.00
2023-03-12T01:52:13.528Z,0.00
2023-03-12T01:53:13.522Z,0.00
2023-03-12T01:54:13.503Z,0.00
2023-03-12T01:55:14.323Z,0.00
2023-03-12T01:56:13.478Z,0.00
2023-03-12T01:57:13.478Z,0.00
2023-03-12T01:58:13.456Z,0.00
2023-03-12T01:59:13.442Z,0.00
2023-03-12T02:00:13.440Z,0.00
2023-03-12T02:01:13.505Z,0.00
2023-03-12T02:02:13.429Z,0.00
2023-03-12T02:03:13.404Z,0.00
2023-03-12T02:04:13.482Z,0.00
2023-03-12T02:05:13.413Z,0.00
2023-03-12T02:06:13.365Z,0.00
2023-03-12T02:07:13.534Z,0.00
2023-03-12T02:08:13.362Z,0.00
2023-03-12T02:09:13.337Z,0.00
2023-03-12T02:10:13.326Z,0.00
2023-03-12T02:11:13.340Z,0.00
2023-03-12T02:12:13.332Z,0.00
2023-03-12T02:13:13.301Z,0.00
2023-03-12T02:14:13.283Z,0.00
2023-03-12T02:15:13.275Z,0.00
2023-03-12T02:16:13.378Z,0.00
2023-03-12T02:17:13.822Z,0.00
2023-03-12T02:18:13.263Z,0.00
2023-03-12T02:19:13.803Z,0.00
2023-03-12T02:20:13.229Z,0.00
2023-03-12T02:21:13.209Z,0.00
2023-03-12T02:22:13.217Z,0.00
2023-03-12T02:23:13.179Z,0.00
2023-03-12T02:24:13.174Z,0.00
2023-03-12T02:25:13.163Z,0.00
2023-03-12T02:26:13.152Z,0.00
2023-03-12T02:27:13.176Z,0.00
2023-03-12T02:28:13.134Z,0.00
2023-03-12T02:29:13.806Z,0.00
2023-03-12T02:30:13.111Z,0.00
2023-03-12T02:31:13.113Z,0.00
2023-03-12T02:32:13.094Z,0.00
2023-03-12T02:33:13.092Z,0.00
2023-03-12T02:34:13.076Z,0.00
2023-03-12T02:35:13.054Z,0.00
2023-03-12T02:36:13.111Z,0.00
2023-03-12T02:37:13.037Z,0.00
2023-03-12T02:38:13.024Z,0.00
2023-03-12T02:39:13.079Z,0.00
2023-03-12T02:40:13.015Z,0.00
2023-03-12T02:41:12.993Z,0.00
2023-03-12T02:42:12.974Z,0.00
2023-03-12T02:43:13.048Z,0.00
2023-03-12T02:44:12.951Z,0.00
2023-03-12T02:45:13.332Z,0.00
2023-03-12T02:46:13.000Z,0.00
2023-03-12T02:47:12.931Z,0.00
2023-03-12T02:48:12.919Z,0.00
2023-03-12T02:49:12.903Z,0.00
2023-03-12T02:50:13.331Z,0.00
2023-03-12T02:51:12.905Z,0.00
2023-03-12T02:52:12.866Z,0.00
2023-03-12T02:53:12.864Z,0.00
2023-03-12T02:54:12.847Z,0.00
2023-03-12T02:55:12.855Z,0.00
2023-03-12T02:56:12.833Z,0.00
2023-03-12T02:57:12.815Z,0.00
2023-03-12T02:58:12.802Z,0.00
2023-03-12T02:59:12.822Z,0.00
2023-03-12T03:00:12.814Z,0.00
2023-03-12T03:01:12.800Z,0.00
2023-03-12T03:02:12.762Z,0.00
2023-03-12T03:03:12.765Z,0.00
2023-03-12T03:04:12.807Z,0.00
2023-03-12T03:05:12.726Z,0.00
2023-03-12T03:06:12.738Z,0.00
2023-03-12T03:07:12.731Z,0.00
2023-03-12T03:08:12.696Z,0.00
2023-03-12T03:09:12.706Z,0.00
2023-03-12T03:10:12.674Z,0.00
2023-03-12T03:11:12.662Z,0.00
2023-03-12T03:12:12.656Z,0.00
2023-03-12T03:13:12.642Z,0.00
2023-03-12T03:14:12.816Z,0.00
2023-03-12T03:15:12.642Z,0.00
2023-03-12T03:16:12.761Z,0.00
2023-03-12T03:17:12.602Z,0.00
2023-03-12T03:18:12.586Z,0.00
2023-03-12T03:19:12.778Z,0.00
2023-03-12T03:20:12.579Z,0.00
2023-03-12T03:21:12.554Z,0.00
2023-03-12T03:22:12.541Z,0.00
2023-03-12T03:23:12.538Z,0.00
2023-03-12T03:24:12.542Z,0.00
2023-03-12T03:25:12.531Z,0.00
2023-03-12T03:26:12.510Z,0.00
2023-03-12T03:27:12.520Z,0.00
2023-03-12T03:28:12.488Z,0.00
2023-03-12T03:29:12.479Z,0.00
2023-03-12T03:30:12.453Z,0.00
2023-03-12T03:31:12.559Z,0.00
2023-03-12T03:32:12.438Z,0.00
2023-03-12T03:33:12.421Z,0.00
2023-03-12T03:34:12.515Z,0.00
2023-03-12T03:35:12.420Z,0.00
2023-03-12T03:36:12.387Z,0.00
2023-03-12T03:37:12.373Z,0.00
2023-03-12T03:38:12.362Z,0.00
2023-03-12T03:39:12.355Z,0.00
2023-03-12T03:40:12.476Z,0.00
2023-03-12T03:41:12.336Z,0.00
2023-03-12T03:42:12.354Z,0.00
2023-03-12T03:43:12.308Z,0.00
2023-03-12T03:44:12.314Z,0.00
2023-03-12T03:45:12.286Z,0.00
2023-03-12T03:46:12.349Z,0.00
2023-03-12T03:47:12.289Z,0.00
2023-03-12T03:48:12.253Z,0.00
2023-03-12T03:49:12.274Z,0.00
2023-03-12T03:50:12.231Z,0.00
2023-03-12T03:51:12.223Z,0.00
2023-03-12T03:52:12.215Z,0.00
2023-03-12T03:53:12.201Z,0.00
2023-03-12T03:54:12.280Z,0.00
2023-03-12T03:55:12.193Z,0.00
2023-03-12T03:56:12.177Z,0.00
2023-03-12T03:57:12.199Z,0.00
2023-03-12T03:58:12.145Z,0.00
2023-03-12T03:59:12.147Z,0.00
2023-03-12T04:00:12.121Z,0.00
2023-03-12T04:01:12.114Z,0.00
2023-03-12T04:02:12.095Z,0.00
2023-03-12T04:03:12.143Z,0.00
2023-03-12T04:04:12.083Z,0.00
2023-03-12T04:05:20.009Z,0.00
2023-03-12T04:06:12.082Z,0.00
2023-03-12T04:07:12.053Z,0.00
2023-03-12T04:08:12.050Z,0.00
2023-03-12T04:09:12.112Z,0.00
2023-03-12T04:10:12.019Z,0.00
2023-03-12T04:11:12.006Z,0.00
2023-03-12T04:12:11.993Z,0.00
2023-03-12T04:13:11.977Z,0.00
2023-03-12T04:14:11.998Z,0.00
2023-03-12T04:15:11.961Z,0.00
2023-03-12T04:16:12.039Z,0.00
2023-03-12T04:17:11.939Z,0.00
2023-03-12T04:18:11.977Z,0.00
2023-03-12T04:19:11.930Z,0.00
2023-03-12T04:20:11.928Z,0.00
2023-03-12T04:21:11.896Z,0.00
2023-03-12T04:22:11.887Z,0.00
2023-03-12T04:23:11.868Z,0.00
2023-03-12T04:24:11.858Z,0.00
2023-03-12T04:25:11.865Z,0.00
2023-03-12T04:26:11.837Z,0.00
2023-03-12T04:27:11.844Z,0.00
2023-03-12T04:28:11.876Z,0.00
2023-03-12T04:29:11.817Z,0.00
2023-03-12T04:30:11.791Z,0.00
2023-03-12T04:31:11.858Z,0.00
2023-03-12T04:32:11.770Z,0.00
2023-03-12T04:33:11.761Z,0.00
2023-03-12T04:34:14.322Z,0.00
2023-03-12T04:35:11.761Z,0.00
2023-03-12T04:36:11.777Z,0.00
2023-03-12T04:37:11.767Z,0.00
2023-03-12T04:38:11.711Z,0.00
2023-03-12T04:39:11.712Z,0.00
2023-03-12T04:40:11.685Z,0.00
2023-03-12T04:41:11.680Z,0.00
2023-03-12T04:42:11.659Z,0.00
2023-03-12T04:43:11.674Z,0.00
2023-03-12T04:44:12.895Z,0.00
2023-03-12T04:45:11.642Z,0.00
2023-03-12T04:46:11.864Z,0.00
2023-03-12T04:47:11.754Z,0.00
2023-03-12T04:48:11.595Z,0.00
2023-03-12T04:49:11.592Z,0.00
2023-03-12T04:50:11.578Z,0.00
2023-03-12T04:51:11.609Z,0.00
2023-03-12T04:52:11.562Z,0.00
2023-03-12T04:53:11.588Z,0.00
2023-03-12T04:54:11.538Z,4.00
2023-03-12T04:55:11.530Z,4.00
2023-03-12T04:56:11.546Z,0.00
2023-03-12T04:57:11.507Z,4.00
2023-03-12T04:58:11.493Z,4.00
2023-03-12T04:59:11.484Z,4.00
2023-03-12T05:00:11.474Z,4.00
2023-03-12T05:01:11.462Z,4.00
2023-03-12T05:02:11.464Z,8.00
2023-03-12T05:03:11.495Z,4.00
2023-03-12T05:04:11.513Z,8.00
2023-03-12T05:05:11.422Z,8.00
2023-03-12T05:06:11.528Z,8.00
2023-03-12T05:07:11.414Z,12.00
2023-03-12T05:08:11.389Z,16.00
2023-03-12T05:09:11.384Z,20.00
2023-03-12T05:10:11.395Z,20.00
2023-03-12T05:11:11.353Z,28.00
2023-03-12T05:12:11.349Z,32.00
2023-03-12T05:13:11.334Z,40.00
2023-03-12T05:14:11.359Z,44.00
2023-03-12T05:15:11.313Z,52.00
2023-03-12T05:16:11.340Z,56.00
2023-03-12T05:17:11.305Z,68.00
2023-03-12T05:18:11.276Z,80.00
2023-03-12T05:19:11.266Z,92.00
2023-03-12T05:20:11.312Z,104.00
2023-03-12T05:21:11.285Z,120.00
2023-03-12T05:22:11.229Z,136.00
2023-03-12T05:23:11.247Z,152.00
2023-03-12T05:24:11.215Z,168.00
2023-03-12T05:25:11.213Z,192.00
2023-03-12T05:26:11.191Z,212.00
2023-03-12T05:27:11.199Z,232.00
2023-03-12T05:28:11.180Z,252.00
2023-03-12T05:29:11.159Z,280.00
2023-03-12T05:30:11.209Z,308.00
2023-03-12T05:31:11.162Z,332.00
2023-03-12T05:32:11.178Z,356.00
2023-03-12T05:33:11.119Z,388.00
2023-03-12T05:34:11.110Z,416.00
2023-03-12T05:35:11.111Z,452.00
2023-03-12T05:36:11.218Z,484.00
2023-03-12T05:37:11.080Z,520.00
2023-03-12T05:38:11.064Z,552.00
2023-03-12T05:39:11.239Z,596.00
2023-03-12T05:40:11.057Z,636.00
2023-03-12T05:41:11.060Z,672.00
2023-03-12T05:42:11.021Z,716.00
2023-03-12T05:43:11.017Z,756.00
2023-03-12T05:44:11.016Z,800.00
2023-03-12T05:45:10.995Z,844.00
2023-03-12T05:46:11.093Z,892.00
2023-03-12T05:47:10.971Z,940.00
2023-03-12T05:48:10.974Z,980.00
2023-03-12T05:49:11.005Z,1024.00
2023-03-12T05:50:10.936Z,1072.00
2023-03-12T05:51:10.926Z,1116.00
2023-03-12T05:52:11.175Z,1156.00
2023-03-12T05:53:10.908Z,1200.00
2023-03-12T05:54:10.904Z,1240.00
2023-03-12T05:55:10.904Z,1284.00
2023-03-12T05:56:10.867Z,1324.00
2023-03-12T05:57:10.863Z,1372.00
2023-03-12T05:58:10.856Z,1416.00
2023-03-12T05:59:10.834Z,1464.00
2023-03-12T06:00:10.827Z,1512.00
2023-03-12T06:01:10.871Z,1564.00
2023-03-12T06:02:10.872Z,1616.00
2023-03-12T06:03:10.858Z,1664.00
2023-03-12T06:04:10.776Z,1712.00
2023-03-12T06:05:10.771Z,1744.00
2023-03-12T06:06:10.834Z,1784.00
2023-03-12T06:07:10.750Z,1828.00
2023-03-12T06:08:10.763Z,1868.00
2023-03-12T06:09:10.730Z,1916.00
2023-03-12T06:10:10.712Z,1972.00
2023-03-12T06:11:10.727Z,2020.00
2023-03-12T06:12:10.692Z,2072.00
2023-03-12T06:13:10.693Z,2128.00
2023-03-12T06:14:10.675Z,2204.00
2023-03-12T06:15:10.661Z,2272.00
2023-03-12T06:16:10.713Z,2324.00
2023-03-12T06:17:10.642Z,2372.00
2023-03-12T06:18:10.643Z,2424.00
2023-03-12T06:19:10.642Z,2468.00
2023-03-12T06:20:11.340Z,2516.00
2023-03-12T06:21:10.598Z,2564.00
2023-03-12T06:22:10.587Z,2604.00
2023-03-12T06:23:10.589Z,2640.00
2023-03-12T06:24:10.621Z,2664.00
2023-03-12T06:25:10.549Z,2696.00
2023-03-12T06:26:10.545Z,2756.00
2023-03-12T06:27:10.550Z,2908.00
2023-03-12T06:28:10.540Z,3204.00
2023-03-12T06:29:10.530Z,3512.00
2023-03-12T06:30:10.502Z,3848.00
2023-03-12T06:31:10.532Z,4240.00
2023-03-12T06:32:10.540Z,4840.00
2023-03-12T06:33:10.490Z,5604.00
2023-03-12T06:34:10.459Z,6556.00
2023-03-12T06:35:10.443Z,8460.00
2023-03-12T06:36:10.436Z,10464.00
2023-03-12T06:37:10.423Z,10664.00
2023-03-12T06:38:10.416Z,11524.00
2023-03-12T06:39:10.421Z,16000.00
2023-03-12T06:40:10.394Z,14304.00
2023-03-12T06:41:10.376Z,14112.00
2023-03-12T06:42:10.387Z,11292.00
2023-03-12T06:43:10.368Z,10980.00
2023-03-12T06:44:10.348Z,13568.00
2023-03-12T06:45:10.330Z,17824.00
2023-03-12T06:46:10.357Z,18464.00
2023-03-12T06:47:10.326Z,17408.00
2023-03-12T06:48:11.358Z,17664.00
2023-03-12T06:49:10.285Z,19584.00
2023-03-12T06:50:10.283Z,18688.00
2023-03-12T06:51:10.264Z,21056.00
2023-03-12T06:52:10.266Z,20640.00
2023-03-12T06:53:10.260Z,21248.00
2023-03-12T06:54:10.240Z,22176.00
2023-03-12T06:55:10.230Z,22592.00
2023-03-12T06:56:10.235Z,24192.00
2023-03-12T06:57:10.201Z,25984.00
2023-03-12T06:58:10.197Z,27968.00
2023-03-12T06:59:10.198Z,29728.00
2023-03-12T07:00:10.178Z,30816.00
2023-03-12T07:01:10.148Z,29248.00
2023-03-12T07:02:10.228Z,27072.00
2023-03-12T07:03:10.137Z,26176.00
2023-03-12T07:04:10.121Z,26528.00
2023-03-12T07:05:10.212Z,26016.00
2023-03-12T07:06:10.101Z,25920.00
2023-03-12T07:07:10.100Z,20672.00
2023-03-12T07:08:10.110Z,23584.00
2023-03-12T07:09:10.075Z,25888.00
2023-03-12T07:10:10.064Z,26144.00
2023-03-12T07:11:10.049Z,27776.00
2023-03-12T07:12:10.062Z,28256.00
2023-03-12T07:13:10.028Z,28960.00
2023-03-12T07:14:10.017Z,29728.00
2023-03-12T07:15:10.041Z,28768.00
2023-03-12T07:16:10.184Z,24896.00
2023-03-12T07:17:09.989Z,21984.00
2023-03-12T07:18:09.972Z,24736.00
2023-03-12T07:19:10.107Z,26208.00
2023-03-12T07:20:09.949Z,26272.00
2023-03-12T07:21:09.940Z,25120.00
2023-03-12T07:22:09.967Z,23712.00
2023-03-12T07:23:09.916Z,21952.00
2023-03-12T07:24:09.920Z,20512.00
2023-03-12T07:25:09.890Z,18976.00
2023-03-12T07:26:09.926Z,17632.00
2023-03-12T07:27:09.871Z,15456.00
2023-03-12T07:28:09.925Z,17792.00
2023-03-12T07:29:09.849Z,20160.00
2023-03-12T07:30:09.844Z,19936.00
2023-03-12T07:31:09.918Z,18368.00
2023-03-12T07:32:09.843Z,18048.00
2023-03-12T07:33:09.962Z,20096.00
2023-03-12T07:34:09.913Z,23296.00
2023-03-12T07:35:09.790Z,20160.00
2023-03-12T07:36:09.951Z,21120.00
2023-03-12T07:37:09.783Z,22464.00
2023-03-12T07:38:09.811Z,22400.00
2023-03-12T07:39:09.731Z,20416.00
2023-03-12T07:40:09.956Z,21952.00
2023-03-12T07:41:09.763Z,21728.00
2023-03-12T07:42:09.743Z,27136.00
2023-03-12T07:43:09.706Z,26592.00
2023-03-12T07:44:09.776Z,35968.00
2023-03-12T07:45:09.697Z,35456.00
2023-03-12T07:46:09.658Z,36448.00
2023-03-12T07:47:22.853Z,35712.00
2023-03-12T07:48:10.750Z,36224.00
2023-03-12T07:49:09.624Z,37152.00
2023-03-12T07:50:09.691Z,37856.00
2023-03-12T07:51:09.607Z,35072.00
2023-03-12T07:52:09.644Z,37760.00
2023-03-12T07:53:09.589Z,35680.00
2023-03-12T07:54:09.567Z,37536.00
2023-03-12T07:55:09.771Z,39264.00
2023-03-12T07:56:09.704Z,39552.00
2023-03-12T07:57:09.803Z,39904.00
2023-03-12T07:58:09.989Z,40640.00
2023-03-12T07:59:09.665Z,40832.00
2023-03-12T08:00:09.556Z,40800.00
2023-03-12T08:01:09.549Z,41408.00
2023-03-12T08:02:09.579Z,41408.00
2023-03-12T08:03:09.831Z,42336.00
2023-03-12T08:04:09.630Z,42208.00
2023-03-12T08:05:09.544Z,37120.00
2023-03-12T08:06:09.525Z,38752.00
2023-03-12T08:07:09.635Z,44544.00
2023-03-12T08:08:09.522Z,44480.00
2023-03-12T08:09:09.403Z,45184.00
2023-03-12T08:10:09.455Z,43744.00
2023-03-12T08:11:09.404Z,43552.00
2023-03-12T08:12:09.441Z,43232.00
2023-03-12T08:13:09.459Z,36544.00
2023-03-12T08:14:09.414Z,34400.00
2023-03-12T08:15:09.328Z,28384.00
2023-03-12T08:16:09.689Z,27168.00
2023-03-12T08:17:09.325Z,28288.00
2023-03-12T08:18:09.296Z,29344.00
2023-03-12T08:19:09.306Z,33152.00
2023-03-12T08:20:09.313Z,39104.00
2023-03-12T08:21:09.260Z,41344.00
2023-03-12T08:22:09.254Z,43328.00
2023-03-12T08:23:09.246Z,43872.00
2023-03-12T08:24:09.232Z,40736.00
2023-03-12T08:25:09.223Z,41984.00
2023-03-12T08:26:09.224Z,42336.00
2023-03-12T08:27:09.223Z,45888.00
2023-03-12T08:28:09.254Z,49376.00
2023-03-12T08:29:09.180Z,49984.00
2023-03-12T08:30:09.297Z,49792.00
2023-03-12T08:31:09.164Z,50784.00
2023-03-12T08:32:09.272Z,51328.00
2023-03-12T08:33:09.204Z,51328.00
2023-03-12T08:34:09.118Z,51040.00
2023-03-12T08:35:09.146Z,51840.00
2023-03-12T08:36:09.104Z,52096.00
2023-03-12T08:37:09.083Z,52064.00
2023-03-12T08:38:09.074Z,52096.00
2023-03-12T08:39:09.060Z,52256.00
2023-03-12T08:40:09.066Z,52224.00
2023-03-12T08:41:09.034Z,52160.00
2023-03-12T08:42:09.027Z,51840.00
2023-03-12T08:43:09.017Z,51488.00
2023-03-12T08:44:09.007Z,55296.00
2023-03-12T08:45:09.010Z,47904.00
2023-03-12T08:46:11.116Z,39008.00
2023-03-12T08:47:08.972Z,35072.00
2023-03-12T08:48:08.963Z,35680.00
2023-03-12T08:49:08.962Z,32864.00
2023-03-12T08:50:08.948Z,33152.00
2023-03-12T08:51:08.958Z,32960.00
2023-03-12T08:52:08.917Z,34272.00
2023-03-12T08:53:08.934Z,31904.00
2023-03-12T08:54:08.897Z,29248.00
2023-03-12T08:55:08.900Z,30304.00
2023-03-12T08:56:08.876Z,26976.00
2023-03-12T08:57:08.864Z,27168.00
2023-03-12T08:58:08.881Z,28032.00
2023-03-12T08:59:08.852Z,30848.00
2023-03-12T09:00:08.835Z,32576.00
2023-03-12T09:01:08.866Z,34528.00
2023-03-12T09:02:08.812Z,31648.00
2023-03-12T09:03:08.886Z,26976.00
2023-03-12T09:04:08.794Z,23552.00
2023-03-12T09:05:08.772Z,25056.00
2023-03-12T09:06:08.783Z,22432.00
2023-03-12T09:07:08.776Z,21824.00
2023-03-12T09:08:08.743Z,27296.00
2023-03-12T09:09:08.741Z,36608.00
2023-03-12T09:10:08.743Z,46400.00
2023-03-12T09:11:08.709Z,49248.00
2023-03-12T09:12:08.706Z,46624.00
2023-03-12T09:13:08.690Z,49248.00
2023-03-12T09:14:46.348Z,50688.00
2023-03-12T09:15:09.671Z,48288.00
2023-03-12T09:16:08.665Z,52608.00
2023-03-12T09:17:08.646Z,48256.00
2023-03-12T09:18:08.629Z,53792.00
2023-03-12T09:19:08.637Z,55872.00
2023-03-12T09:20:08.605Z,60416.00
2023-03-12T09:21:08.602Z,65632.00
2023-03-12T09:22:08.589Z,52896.00
2023-03-12T09:23:08.620Z,57536.00
2023-03-12T09:24:08.560Z,53632.00
2023-03-12T09:25:08.571Z,49312.00
2023-03-12T09:26:08.540Z,51488.00
2023-03-12T09:27:08.535Z,48672.00
2023-03-12T09:28:08.517Z,40768.00
2023-03-12T09:29:08.523Z,35776.00
2023-03-12T09:30:08.504Z,36864.00
2023-03-12T09:31:08.602Z,44832.00
2023-03-12T09:32:08.475Z,57152.00
2023-03-12T09:33:08.458Z,73600.00
2023-03-12T09:34:08.461Z,74336.00
2023-03-12T09:35:08.460Z,70752.00
2023-03-12T09:36:08.505Z,45504.00
2023-03-12T09:37:08.452Z,36832.00
2023-03-12T09:38:08.405Z,34336.00
2023-03-12T09:39:08.414Z,31104.00
2023-03-12T09:40:08.403Z,28864.00
2023-03-12T09:41:08.372Z,28096.00
2023-03-12T09:42:08.360Z,30624.00
2023-03-12T09:43:08.356Z,31200.00
2023-03-12T09:44:08.338Z,30432.00
2023-03-12T09:45:08.345Z,32352.00
2023-03-12T09:46:08.518Z,32032.00
2023-03-12T09:47:08.315Z,32832.00
2023-03-12T09:48:08.291Z,32800.00
2023-03-12T09:49:08.307Z,32384.00
2023-03-12T09:50:08.332Z,34016.00
2023-03-12T09:51:08.264Z,41408.00
2023-03-12T09:52:08.249Z,43296.00
2023-03-12T09:53:08.237Z,52928.00
2023-03-12T09:54:08.255Z,48000.00
2023-03-12T09:55:08.255Z,50016.00
2023-03-12T09:56:08.206Z,48352.00
2023-03-12T09:57:08.233Z,70080.00
2023-03-12T09:58:08.183Z,63584.00
2023-03-12T09:59:08.170Z,71584.00
2023-03-12T10:00:08.197Z,82560.00
2023-03-12T10:01:08.147Z,81312.00
2023-03-12T10:02:08.139Z,83200.00
2023-03-12T10:03:08.185Z,77056.00
2023-03-12T10:04:08.285Z,79552.00
2023-03-12T10:05:08.187Z,70944.00
2023-03-12T10:06:15.205Z,76960.00
2023-03-12T10:07:08.082Z,69952.00
2023-03-12T10:08:23.351Z,59744.00
2023-03-12T10:09:09.057Z,34624.00
2023-03-12T10:10:08.067Z,49920.00
2023-03-12T10:11:08.058Z,50336.00
2023-03-12T10:12:08.046Z,63488.00
2023-03-12T10:13:08.017Z,58560.00
2023-03-12T10:14:08.008Z,56992.00
2023-03-12T10:15:07.996Z,56832.00
2023-03-12T10:16:08.061Z,54432.00
2023-03-12T10:17:07.981Z,44864.00
2023-03-12T10:18:08.076Z,46144.00
2023-03-12T10:19:07.952Z,55648.00
2023-03-12T10:20:08.039Z,50816.00
2023-03-12T10:21:07.938Z,53088.00
2023-03-12T10:22:07.959Z,55328.00
2023-03-12T10:23:07.904Z,55648.00
2023-03-12T10:24:07.899Z,36320.00
2023-03-12T10:25:07.884Z,41472.00
2023-03-12T10:26:07.870Z,44096.00
2023-03-12T10:27:08.082Z,32608.00
2023-03-12T10:28:07.851Z,30688.00
2023-03-12T10:29:07.902Z,32224.00
2023-03-12T10:30:07.828Z,35200.00
2023-03-12T10:31:07.895Z,47968.00
2023-03-12T10:32:07.812Z,66752.00
2023-03-12T10:33:07.792Z,39424.00
2023-03-12T10:34:07.808Z,46272.00
2023-03-12T10:35:07.773Z,42048.00
2023-03-12T10:36:07.846Z,43328.00
2023-03-12T10:37:07.754Z,41536.00
2023-03-12T10:38:07.739Z,49120.00
2023-03-12T10:39:07.733Z,40544.00
2023-03-12T10:40:07.716Z,41120.00
2023-03-12T10:41:07.759Z,46784.00
2023-03-12T10:42:07.694Z,63520.00
2023-03-12T10:43:07.703Z,61024.00
2023-03-12T10:44:07.686Z,51136.00
2023-03-12T10:45:07.661Z,48160.00
2023-03-12T10:46:07.727Z,37856.00
2023-03-12T10:47:07.667Z,29248.00
2023-03-12T10:48:07.626Z,31424.00
2023-03-12T10:49:07.622Z,35072.00
2023-03-12T10:50:07.606Z,54816.00
2023-03-12T10:51:07.632Z,59456.00
2023-03-12T10:52:07.582Z,54112.00
2023-03-12T10:53:07.574Z,66720.00
2023-03-12T10:54:07.561Z,46240.00
2023-03-12T10:55:07.558Z,44480.00
2023-03-12T10:56:07.582Z,45920.00
2023-03-12T10:57:07.565Z,39168.00
2023-03-12T10:58:07.569Z,78368.00
2023-03-12T10:59:07.533Z,55488.00
2023-03-12T11:00:07.530Z,54688.00
2023-03-12T11:01:07.493Z,43008.00
2023-03-12T11:02:07.605Z,47872.00
2023-03-12T11:03:07.468Z,58816.00
2023-03-12T11:04:07.454Z,42976.00
2023-03-12T11:05:07.443Z,39040.00
2023-03-12T11:06:07.449Z,48128.00
2023-03-12T11:07:07.522Z,46304.00
2023-03-12T11:08:07.408Z,55968.00
2023-03-12T11:09:16.558Z,42720.00
2023-03-12T11:10:08.412Z,37600.00
2023-03-12T11:11:07.401Z,35136.00
2023-03-12T11:12:07.383Z,42304.00
2023-03-12T11:13:07.434Z,54944.00
2023-03-12T11:14:07.357Z,64288.00
2023-03-12T11:15:07.354Z,62848.00
2023-03-12T11:16:07.392Z,32576.00
2023-03-12T11:17:07.336Z,27872.00
2023-03-12T11:18:07.308Z,26624.00
2023-03-12T11:19:07.291Z,27168.00
2023-03-12T11:20:07.281Z,28960.00
2023-03-12T11:21:07.266Z,33088.00
2023-03-12T11:22:07.272Z,32768.00
2023-03-12T11:23:07.247Z,36960.00
2023-03-12T11:24:07.573Z,36224.00
2023-03-12T11:25:07.231Z,33120.00
2023-03-12T11:26:07.265Z,51680.00
2023-03-12T11:27:07.218Z,55392.00
2023-03-12T11:28:07.249Z,38400.00
2023-03-12T11:29:07.203Z,38656.00
2023-03-12T11:30:07.222Z,42048.00
2023-03-12T11:31:07.490Z,38304.00
2023-03-12T11:32:07.200Z,33088.00
2023-03-12T11:33:07.145Z,32608.00
2023-03-12T11:34:07.133Z,33824.00
2023-03-12T11:35:07.111Z,35520.00
2023-03-12T11:36:07.105Z,35808.00
2023-03-12T11:37:07.102Z,32992.00
2023-03-12T11:38:07.092Z,37696.00
2023-03-12T11:39:07.067Z,45920.00
2023-03-12T11:40:07.054Z,35104.00
2023-03-12T11:41:07.048Z,35776.00
2023-03-12T11:42:07.074Z,33632.00
2023-03-12T11:43:07.040Z,39232.00
2023-03-12T11:44:07.011Z,51616.00
2023-03-12T11:45:07.016Z,38368.00
2023-03-12T11:46:06.986Z,57728.00
2023-03-12T11:47:07.034Z,37248.00
2023-03-12T11:48:06.966Z,32352.00
2023-03-12T11:49:07.062Z,26784.00
2023-03-12T11:50:06.977Z,25312.00
2023-03-12T11:51:06.938Z,22560.00
2023-03-12T11:52:06.927Z,20096.00
2023-03-12T11:53:06.932Z,19200.00
2023-03-12T11:54:06.905Z,18112.00
2023-03-12T11:55:06.883Z,17280.00
2023-03-12T11:56:06.873Z,17472.00
2023-03-12T11:57:06.866Z,18080.00
2023-03-12T11:58:06.873Z,18240.00
2023-03-12T11:59:06.843Z,18976.00
2023-03-12T12:00:06.835Z,20288.00
2023-03-12T12:01:06.824Z,20992.00
2023-03-12T12:02:06.861Z,21248.00
2023-03-12T12:03:06.861Z,20736.00
2023-03-12T12:04:06.799Z,21152.00
2023-03-12T12:05:06.778Z,22656.00
2023-03-12T12:06:06.768Z,24480.00
2023-03-12T12:07:06.764Z,27200.00
2023-03-12T12:08:06.760Z,27776.00
2023-03-12T12:09:06.877Z,24576.00
2023-03-12T12:10:06.720Z,20896.00
2023-03-12T12:11:06.735Z,19808.00
2023-03-12T12:12:06.711Z,17760.00
2023-03-12T12:13:06.688Z,16544.00
2023-03-12T12:14:06.675Z,15604.00
2023-03-12T12:15:06.687Z,14956.00
2023-03-12T12:16:06.726Z,14388.00
2023-03-12T12:17:06.664Z,14496.00
2023-03-12T12:18:06.632Z,15584.00
2023-03-12T12:19:06.641Z,17120.00
2023-03-12T12:20:06.609Z,17952.00
2023-03-12T12:21:06.603Z,18976.00
2023-03-12T12:22:06.597Z,21216.00
2023-03-12T12:23:06.575Z,25120.00
2023-03-12T12:24:06.560Z,25600.00